createdAt,value
2018-07-13T00:02:05.173Z,4.70
2018-07-13T00:04:33.290Z,4.60
2018-07-13T00:09:35.923Z,4.30
2018-07-13T00:12:04.059Z,7.00
2018-07-13T00:14:32.156Z,4.60
2018-07-13T00:17:00.246Z,4.87
2018-07-13T00:19:28.334Z,5.00
2018-07-13T00:21:56.441Z,4.50
2018-07-13T00:24:24.563Z,4.40
2018-07-13T00:26:52.664Z,4.83
2018-07-13T00:29:20.755Z,5.03
2018-07-13T00:31:48.876Z,5.13
2018-07-13T00:34:16.970Z,5.60
2018-07-13T00:36:45.052Z,4.73
2018-07-13T00:39:13.888Z,5.10
2018-07-13T00:41:42.027Z,5.80
2018-07-13T00:44:10.170Z,5.00
2018-07-13T00:46:38.278Z,5.00
2018-07-13T00:49:06.423Z,5.03
2018-07-13T00:51:34.529Z,5.80
2018-07-13T00:54:02.626Z,5.50
2018-07-13T00:56:30.723Z,6.57
2018-07-13T00:58:58.837Z,5.00
2018-07-13T01:01:26.964Z,5.53
2018-07-13T01:03:55.076Z,5.80
2018-07-13T01:06:23.202Z,6.60
2018-07-13T01:08:51.277Z,5.30
2018-07-13T01:11:19.417Z,5.23
2018-07-13T01:13:47.556Z,5.40
2018-07-13T01:16:15.652Z,6.40
2018-07-13T01:18:43.732Z,5.37
2018-07-13T01:21:11.839Z,5.27
2018-07-13T01:23:39.941Z,5.60
2018-07-13T01:26:08.040Z,5.53
2018-07-13T01:28:36.174Z,6.83
2018-07-13T01:31:04.268Z,5.47
2018-07-13T01:33:32.391Z,5.80
2018-07-13T01:36:00.505Z,5.37
2018-07-13T01:38:28.599Z,6.20
2018-07-13T01:40:56.720Z,5.40
2018-07-13T01:43:24.821Z,6.00
2018-07-13T01:45:52.933Z,5.80
2018-07-13T01:48:21.021Z,4.47
2018-07-13T01:50:49.137Z,5.50
2018-07-13T01:53:17.245Z,5.57
2018-07-13T01:55:45.444Z,5.47
2018-07-13T01:58:13.440Z,5.90
2018-07-13T02:00:41.542Z,6.63
2018-07-13T02:03:09.660Z,6.00
2018-07-13T02:05:37.764Z,6.60
2018-07-13T02:08:05.904Z,5.90
2018-07-13T02:10:34.016Z,7.40
2018-07-13T02:13:02.176Z,6.60
2018-07-13T02:15:30.272Z,6.00
2018-07-13T02:17:58.392Z,6.60
2018-07-13T02:20:26.552Z,6.37
2018-07-13T02:22:54.661Z,6.43
2018-07-13T02:25:22.761Z,8.50
2018-07-13T02:27:50.880Z,6.57
2018-07-13T02:30:18.973Z,8.03
2018-07-13T02:32:47.276Z,7.27
2018-07-13T02:35:15.391Z,9.40
2018-07-13T02:37:43.640Z,8.53
2018-07-13T02:40:11.763Z,8.20
2018-07-13T02:42:39.882Z,8.57
2018-07-13T02:45:07.996Z,7.10
2018-07-13T02:47:36.123Z,6.90
2018-07-13T02:50:04.372Z,6.97
2018-07-13T02:52:32.519Z,6.90
2018-07-13T02:55:00.669Z,7.90
2018-07-13T02:57:28.782Z,8.37
2018-07-13T02:59:56.886Z,7.70
2018-07-13T03:02:25.005Z,10.50
2018-07-13T03:04:53.122Z,12.17
2018-07-13T03:07:21.217Z,12.47
2018-07-13T03:09:49.328Z,11.53
2018-07-13T03:12:17.440Z,12.63
2018-07-13T03:14:45.567Z,10.43
2018-07-13T03:17:13.692Z,11.40
2018-07-13T03:19:41.796Z,11.70
2018-07-13T03:22:09.973Z,12.80
2018-07-13T03:24:39.415Z,14.10
2018-07-13T03:27:07.539Z,12.20
2018-07-13T03:29:35.671Z,11.93
2018-07-13T03:32:03.892Z,10.63
2018-07-13T03:34:32.065Z,11.00
2018-07-13T03:37:00.429Z,10.30
2018-07-13T03:39:28.549Z,12.43
2018-07-13T03:41:56.639Z,11.00
2018-07-13T03:44:24.761Z,9.57
2018-07-13T03:46:52.875Z,9.80
2018-07-13T03:49:20.983Z,9.93
2018-07-13T03:51:49.097Z,11.17
2018-07-13T03:54:17.246Z,9.30
2018-07-13T03:56:45.336Z,8.83
2018-07-13T03:59:36.340Z,9.57
2018-07-13T04:02:04.480Z,9.30
2018-07-13T04:04:32.587Z,9.30
2018-07-13T04:07:00.740Z,8.70
2018-07-13T04:09:28.794Z,8.60
2018-07-13T04:11:56.928Z,8.90
2018-07-13T04:14:25.060Z,8.67
2018-07-13T04:16:53.151Z,8.67
2018-07-13T04:19:21.270Z,9.70
2018-07-13T04:21:49.383Z,8.87
2018-07-13T04:24:17.517Z,8.27
2018-07-13T04:26:46.960Z,9.70
2018-07-13T04:29:15.081Z,9.10
2018-07-13T04:31:43.226Z,10.03
2018-07-13T04:34:11.396Z,12.03
2018-07-13T04:36:39.485Z,11.50
2018-07-13T04:39:09.215Z,11.50
2018-07-13T04:41:37.312Z,11.93
2018-07-13T04:44:05.580Z,11.10
2018-07-13T04:46:33.669Z,14.03
2018-07-13T04:49:02.040Z,14.53
2018-07-13T04:51:30.164Z,14.80
2018-07-13T04:53:58.363Z,17.00
2018-07-13T04:56:26.552Z,16.80
2018-07-13T04:58:54.671Z,16.70
2018-07-13T05:01:22.883Z,14.80
2018-07-13T05:03:51.008Z,15.47
2018-07-13T05:06:19.233Z,17.20
2018-07-13T05:08:47.397Z,17.90
2018-07-13T05:11:15.512Z,19.80
2018-07-13T05:13:43.625Z,21.20
2018-07-13T05:16:11.753Z,19.10
2018-07-13T05:18:43.869Z,21.23
2018-07-13T05:21:11.985Z,20.20
2018-07-13T05:23:40.099Z,22.50
2018-07-13T05:26:08.325Z,21.33
2018-07-13T05:28:36.442Z,20.50
2018-07-13T05:31:04.704Z,21.40
2018-07-13T05:33:32.876Z,20.17
2018-07-13T05:36:01.121Z,22.90
2018-07-13T05:38:29.680Z,22.47
2018-07-13T05:40:57.763Z,22.80
2018-07-13T05:43:25.883Z,23.37
2018-07-13T05:45:54.016Z,23.70
2018-07-13T05:48:22.123Z,26.57
2018-07-13T05:50:50.264Z,24.17
2018-07-13T05:53:18.421Z,26.00
2018-07-13T05:55:46.532Z,25.10
2018-07-13T05:58:14.644Z,27.57
2018-07-13T06:00:42.776Z,25.30
2018-07-13T06:03:10.889Z,26.93
2018-07-13T06:05:38.998Z,26.37
2018-07-13T06:08:07.161Z,30.40
2018-07-13T06:10:35.268Z,28.73
2018-07-13T06:13:03.391Z,28.40
2018-07-13T06:15:31.501Z,30.00
2018-07-13T06:17:59.612Z,29.37
2018-07-13T06:20:27.829Z,29.07
2018-07-13T06:22:55.928Z,28.33
2018-07-13T06:25:24.035Z,27.87
2018-07-13T06:27:52.152Z,27.70
2018-07-13T06:30:20.405Z,27.97
2018-07-13T06:32:48.419Z,25.93
2018-07-13T06:35:16.546Z,25.60
2018-07-13T06:37:44.664Z,26.07
2018-07-13T06:40:12.806Z,26.87
2018-07-13T06:42:40.918Z,23.20
2018-07-13T06:45:09.036Z,24.33
2018-07-13T06:47:37.141Z,24.53
2018-07-13T06:50:05.303Z,23.20
2018-07-13T06:52:33.456Z,22.80
2018-07-13T06:55:01.630Z,22.33
2018-07-13T06:57:41.215Z,23.57
2018-07-13T07:01:14.732Z,24.00
2018-07-13T07:04:52.687Z,23.23
2018-07-13T07:07:22.497Z,24.73
2018-07-13T07:09:56.433Z,23.23
2018-07-13T07:13:30.188Z,23.90
2018-07-13T07:15:58.770Z,21.97
2018-07-13T07:18:26.884Z,21.90
2018-07-13T07:20:55.836Z,19.77
2018-07-13T07:23:23.933Z,19.47
2018-07-13T07:25:52.028Z,20.17
2018-07-13T07:28:20.132Z,21.60
2018-07-13T07:30:48.251Z,19.47
2018-07-13T07:36:09.095Z,18.73
2018-07-13T07:38:37.201Z,18.77
2018-07-13T07:41:05.317Z,19.20
2018-07-13T07:43:33.432Z,16.73
2018-07-13T07:46:01.560Z,18.03
2018-07-13T07:48:29.675Z,18.87
2018-07-13T07:50:57.796Z,16.53
2018-07-13T07:53:25.896Z,20.60
2018-07-13T07:55:55.630Z,19.10
2018-07-13T07:58:23.724Z,19.40
2018-07-13T08:00:51.852Z,17.53
2018-07-13T08:03:19.960Z,18.93
2018-07-13T08:05:48.104Z,17.40
2018-07-13T08:08:16.215Z,16.67
2018-07-13T08:10:44.342Z,18.63
2018-07-13T08:13:12.440Z,18.73
2018-07-13T08:15:40.576Z,18.67
2018-07-13T08:18:08.743Z,19.20
2018-07-13T08:20:38.142Z,19.13
2018-07-13T08:23:07.913Z,17.80
2018-07-13T08:25:36.495Z,18.40
2018-07-13T08:28:04.863Z,17.70
2018-07-13T08:31:09.472Z,17.20
2018-07-13T08:33:37.577Z,15.53
2018-07-13T08:36:05.708Z,16.87
2018-07-13T08:38:33.912Z,16.63
2018-07-13T08:41:02.028Z,18.73
2018-07-13T08:43:30.163Z,16.57
2018-07-13T08:45:58.383Z,17.07
2018-07-13T08:48:26.408Z,15.40
2018-07-13T08:50:54.539Z,19.00
2018-07-13T08:53:22.640Z,15.93
2018-07-13T08:55:50.760Z,17.33
2018-07-13T08:58:18.886Z,15.07
2018-07-13T09:00:47.011Z,17.00
2018-07-13T09:03:15.113Z,16.00
2018-07-13T09:05:43.290Z,16.53
2018-07-13T09:08:11.381Z,15.33
2018-07-13T09:10:39.495Z,16.40
2018-07-13T09:13:07.613Z,17.70
2018-07-13T09:15:35.719Z,15.50
2018-07-13T09:18:03.859Z,15.97
2018-07-13T09:20:31.964Z,15.77
2018-07-13T09:23:00.089Z,14.90
2018-07-13T09:25:28.240Z,13.73
2018-07-13T09:27:56.355Z,14.50
2018-07-13T09:30:24.464Z,14.43
2018-07-13T09:32:52.576Z,14.47
2018-07-13T09:35:20.712Z,13.80
2018-07-13T09:37:48.837Z,12.73
2018-07-13T09:40:16.946Z,12.73
2018-07-13T09:42:45.056Z,12.30
2018-07-13T09:45:13.192Z,12.40
2018-07-13T09:47:41.347Z,12.07
2018-07-13T09:50:09.453Z,11.93
2018-07-13T09:52:37.545Z,11.23
2018-07-13T09:55:05.721Z,10.30
2018-07-13T09:57:33.912Z,10.27
2018-07-13T10:00:02.107Z,9.23
2018-07-13T10:02:31.226Z,7.80
2018-07-13T10:04:59.379Z,8.87
2018-07-13T10:07:27.513Z,7.53
2018-07-13T10:09:55.608Z,7.07
2018-07-13T10:12:23.825Z,7.20
2018-07-13T10:14:52.001Z,7.50
2018-07-13T10:17:20.154Z,7.33
2018-07-13T10:19:48.256Z,6.40
2018-07-13T10:22:19.404Z,6.27
2018-07-13T10:24:49.446Z,7.03
2018-07-13T10:27:17.592Z,7.67
2018-07-13T10:29:49.084Z,7.40
2018-07-13T10:32:17.188Z,6.67
2018-07-13T10:34:45.624Z,6.33
2018-07-13T10:37:14.020Z,7.50
2018-07-13T10:39:42.136Z,7.10
2018-07-13T10:42:10.257Z,7.00
2018-07-13T10:44:38.456Z,7.67
2018-07-13T10:47:06.767Z,7.70
2018-07-13T10:49:34.868Z,7.87
2018-07-13T10:52:07.004Z,7.40
2018-07-13T10:54:35.133Z,6.70
2018-07-13T10:57:03.275Z,6.83
2018-07-13T10:59:31.331Z,6.90
2018-07-13T11:01:59.432Z,6.60
2018-07-13T11:04:27.545Z,6.90
2018-07-13T11:06:55.640Z,6.70
2018-07-13T11:09:23.760Z,6.80
2018-07-13T11:11:51.954Z,8.30
2018-07-13T11:14:20.064Z,7.80
2018-07-13T11:16:48.157Z,7.00
2018-07-13T11:19:16.268Z,9.13
2018-07-13T11:21:44.356Z,8.13
2018-07-13T11:24:12.481Z,8.90
2018-07-13T11:26:40.552Z,8.10
2018-07-13T11:29:08.652Z,8.90
2018-07-13T11:31:36.761Z,9.00
2018-07-13T11:34:04.859Z,9.60
2018-07-13T11:36:32.948Z,8.90
2018-07-13T11:39:01.056Z,9.83
2018-07-13T11:41:29.185Z,9.83
2018-07-13T11:43:57.286Z,8.57
2018-07-13T11:46:25.162Z,10.10
2018-07-13T11:48:53.298Z,9.83
2018-07-13T11:51:21.399Z,9.33
2018-07-13T11:53:49.536Z,9.90
2018-07-13T11:56:17.676Z,12.53
2018-07-13T11:58:45.805Z,10.93
2018-07-13T12:01:13.902Z,10.00
2018-07-13T12:03:42.007Z,9.70
2018-07-13T12:06:10.108Z,9.17
2018-07-13T12:08:38.417Z,9.13
2018-07-13T12:11:06.542Z,10.40
2018-07-13T12:13:34.657Z,9.60
2018-07-13T12:16:02.801Z,10.80
2018-07-13T12:18:30.914Z,9.87
2018-07-13T12:20:59.006Z,9.23
2018-07-13T12:23:27.133Z,10.20
2018-07-13T12:25:56.325Z,9.77
2018-07-13T12:28:24.327Z,10.07
2018-07-13T12:30:52.433Z,10.73
2018-07-13T12:33:20.540Z,8.90
2018-07-13T12:35:48.695Z,9.57
2018-07-13T12:38:16.791Z,9.60
2018-07-13T12:40:44.984Z,11.53
2018-07-13T12:43:13.132Z,9.30
2018-07-13T12:45:41.252Z,8.80
2018-07-13T12:48:09.360Z,9.43
2018-07-13T12:50:37.496Z,11.53
2018-07-13T12:53:05.809Z,11.40
2018-07-13T12:55:33.967Z,9.97
2018-07-13T12:58:01.840Z,10.63
2018-07-13T13:00:29.972Z,10.63
2018-07-13T13:02:58.101Z,10.97
2018-07-13T13:05:26.225Z,11.07
2018-07-13T13:07:54.322Z,10.53
2018-07-13T13:10:22.428Z,11.73
2018-07-13T13:12:50.553Z,10.90
2018-07-13T13:15:18.733Z,9.10
2018-07-13T13:17:46.804Z,9.90
2018-07-13T13:20:14.908Z,8.97
2018-07-13T13:22:43.027Z,9.73
2018-07-13T13:25:11.151Z,11.27
2018-07-13T13:27:39.268Z,9.67
2018-07-13T13:30:07.376Z,9.73
2018-07-13T13:32:35.484Z,10.30
2018-07-13T13:35:03.595Z,8.83
2018-07-13T13:37:31.695Z,8.97
2018-07-13T13:39:59.835Z,9.23
2018-07-13T13:42:27.971Z,10.60
2018-07-13T13:44:56.092Z,9.87
2018-07-13T13:47:24.200Z,7.77
2018-07-13T13:49:52.328Z,11.00
2018-07-13T13:52:20.428Z,9.43
2018-07-13T13:54:48.562Z,7.97
2018-07-13T13:57:16.697Z,7.97
2018-07-13T13:59:44.858Z,8.50
2018-07-13T14:02:12.940Z,9.03
2018-07-13T14:04:41.084Z,8.27
2018-07-13T14:07:09.259Z,9.50
2018-07-13T14:09:37.437Z,10.53
2018-07-13T14:12:05.766Z,9.17
2018-07-13T14:14:33.864Z,7.83
2018-07-13T14:17:02.668Z,9.37
2018-07-13T14:19:30.789Z,8.43
2018-07-13T14:21:58.663Z,8.13
2018-07-13T14:24:26.785Z,9.77
2018-07-13T14:26:54.896Z,8.33
2018-07-13T14:29:23.044Z,8.60
2018-07-13T14:31:51.164Z,7.60
2018-07-13T14:34:19.351Z,8.33
2018-07-13T14:36:47.496Z,7.73
2018-07-13T14:39:15.549Z,9.37
2018-07-13T14:41:44.216Z,8.93
2018-07-13T14:44:12.328Z,8.00
2018-07-13T14:46:40.431Z,8.30
2018-07-13T14:49:08.532Z,8.03
2018-07-13T14:51:36.643Z,8.80
2018-07-13T14:54:05.037Z,7.80
2018-07-13T14:56:33.232Z,8.10
2018-07-13T14:59:01.361Z,8.77
2018-07-13T15:01:29.514Z,8.30
2018-07-13T15:03:57.661Z,8.83
2018-07-13T15:06:25.973Z,7.00
2018-07-13T15:08:53.964Z,8.53
2018-07-13T15:11:22.063Z,9.10
2018-07-13T15:13:50.577Z,9.20
2018-07-13T15:16:18.680Z,8.37
2018-07-13T15:18:46.769Z,8.80
2018-07-13T15:21:15.173Z,8.10
2018-07-13T15:23:43.294Z,6.80
2018-07-13T15:26:11.418Z,8.20
2018-07-13T15:28:39.502Z,8.57
2018-07-13T15:31:07.599Z,8.10
2018-07-13T15:33:35.723Z,8.40
2018-07-13T15:36:03.889Z,8.47
2018-07-13T15:38:31.977Z,8.27
2018-07-13T15:41:00.165Z,8.80
2018-07-13T15:43:28.321Z,7.47
2018-07-13T15:45:56.408Z,7.37
2018-07-13T15:48:24.519Z,8.47
2018-07-13T15:50:52.623Z,8.80
2018-07-13T15:53:20.723Z,9.10
2018-07-13T15:55:54.092Z,7.70
2018-07-13T15:58:22.290Z,7.50
2018-07-13T16:00:50.416Z,7.80
2018-07-13T16:03:18.526Z,8.57
2018-07-13T16:05:46.779Z,9.33
2018-07-13T16:08:14.880Z,8.97
2018-07-13T16:10:43.001Z,7.97
2018-07-13T16:13:11.903Z,8.13
2018-07-13T16:15:40.019Z,7.87
2018-07-13T16:18:08.132Z,8.33
2018-07-13T16:20:36.231Z,8.77
2018-07-13T16:23:04.399Z,8.50
2018-07-13T16:25:32.475Z,9.23
2018-07-13T16:28:00.656Z,9.80
2018-07-13T16:30:28.769Z,8.87
2018-07-13T16:32:56.899Z,7.90
2018-07-13T16:35:24.991Z,8.43
2018-07-13T16:37:53.256Z,7.17
2018-07-13T16:40:21.395Z,8.73
2018-07-13T16:42:49.876Z,8.63
2018-07-13T16:45:17.975Z,8.10
2018-07-13T16:47:46.088Z,7.83
2018-07-13T16:50:14.196Z,8.13
2018-07-13T16:52:42.315Z,8.90
2018-07-13T16:55:10.422Z,8.20
2018-07-13T16:57:38.526Z,11.23
2018-07-13T17:00:06.644Z,9.40
2018-07-13T17:02:34.772Z,7.90
2018-07-13T17:05:02.907Z,7.73
2018-07-13T17:07:31.008Z,7.60
2018-07-13T17:09:59.120Z,9.20
2018-07-13T17:12:27.241Z,8.37
2018-07-13T17:14:55.341Z,10.93
2018-07-13T17:17:23.211Z,9.33
2018-07-13T17:19:51.334Z,9.93
2018-07-13T17:22:19.533Z,10.33
2018-07-13T17:24:47.641Z,11.30
2018-07-13T17:27:15.860Z,10.67
2018-07-13T17:29:44.076Z,8.93
2018-07-13T17:32:12.181Z,10.63
2018-07-13T17:34:40.296Z,10.90
2018-07-13T17:37:08.409Z,10.40
2018-07-13T17:39:36.531Z,10.80
2018-07-13T17:42:04.632Z,9.90
2018-07-13T17:44:32.773Z,10.77
2018-07-13T17:47:00.874Z,11.60
2018-07-13T17:49:29.002Z,11.67
2018-07-13T17:51:57.125Z,9.40
2018-07-13T17:54:25.290Z,9.53
2018-07-13T17:56:53.441Z,10.27
2018-07-13T17:59:21.554Z,10.10
2018-07-13T18:01:49.932Z,9.77
2018-07-13T18:04:18.076Z,9.70
2018-07-13T18:06:46.265Z,9.63
2018-07-13T18:09:14.333Z,8.80
2018-07-13T18:11:42.428Z,9.57
2018-07-13T18:14:10.555Z,9.83
2018-07-13T18:16:38.735Z,8.70
2018-07-13T18:19:06.833Z,9.07
2018-07-13T18:21:35.000Z,9.57
2018-07-13T18:24:03.064Z,9.00
2018-07-13T18:26:31.160Z,8.70
2018-07-13T18:28:59.287Z,8.73
2018-07-13T18:31:27.409Z,8.73
2018-07-13T18:33:55.505Z,9.50
2018-07-13T18:36:23.638Z,8.30
2018-07-13T18:38:51.745Z,8.53
2018-07-13T18:41:19.868Z,9.10
2018-07-13T18:43:48.021Z,8.47
2018-07-13T18:46:16.295Z,9.80
2018-07-13T18:48:44.232Z,7.97
2018-07-13T18:51:12.324Z,8.20
2018-07-13T18:53:40.435Z,9.60
2018-07-13T18:56:08.634Z,8.90
2018-07-13T18:58:36.979Z,8.93
2018-07-13T19:01:05.172Z,9.03
2018-07-13T19:03:33.295Z,8.13
2018-07-13T19:06:01.424Z,8.63
2018-07-13T19:08:29.645Z,8.20
2018-07-13T19:10:57.754Z,9.57
2018-07-13T19:13:25.886Z,9.60
2018-07-13T19:15:54.006Z,8.70
2018-07-13T19:18:22.130Z,9.20
2018-07-13T19:20:50.960Z,8.73
2018-07-13T19:23:19.086Z,8.63
2018-07-13T19:25:47.190Z,9.73
2018-07-13T19:28:15.320Z,8.90
2018-07-13T19:30:43.497Z,9.17
2018-07-13T19:33:11.572Z,10.30
2018-07-13T19:35:39.718Z,8.77
2018-07-13T19:38:07.820Z,10.20
2018-07-13T19:40:35.951Z,9.90
2018-07-13T19:43:04.089Z,10.60
2018-07-13T19:45:32.176Z,8.10
2018-07-13T19:48:00.271Z,8.87
2018-07-13T19:50:28.388Z,9.50
2018-07-13T19:52:56.525Z,9.20
2018-07-13T19:55:24.617Z,9.40
2018-07-13T19:57:52.715Z,10.70
2018-07-13T20:00:20.823Z,9.93
2018-07-13T20:02:48.952Z,9.40
2018-07-13T20:05:17.055Z,10.27
2018-07-13T20:07:45.185Z,9.27
2018-07-13T20:10:13.413Z,10.00
2018-07-13T20:12:41.632Z,10.20
2018-07-13T20:15:09.786Z,10.27
2018-07-13T20:17:37.745Z,10.37
2018-07-13T20:20:10.399Z,10.37
2018-07-13T20:22:38.799Z,9.70
2018-07-13T20:25:07.696Z,9.60
2018-07-13T20:27:36.919Z,9.83
2018-07-13T20:30:05.149Z,10.40
2018-07-13T20:32:33.324Z,9.87
2018-07-13T20:35:09.263Z,9.63
2018-07-13T20:37:37.392Z,10.27
2018-07-13T20:40:05.505Z,9.60
2018-07-13T20:42:33.672Z,9.33
2018-07-13T20:45:01.769Z,8.87
2018-07-13T20:47:29.882Z,9.23
2018-07-13T20:49:57.985Z,9.20
2018-07-13T20:52:26.118Z,10.50
2018-07-13T20:54:54.351Z,9.97
2018-07-13T20:57:22.439Z,10.60
2018-07-13T20:59:50.552Z,9.20
2018-07-13T21:02:18.425Z,10.90
2018-07-13T21:04:46.558Z,10.23
2018-07-13T21:07:14.681Z,9.80
2018-07-13T21:09:42.792Z,10.23
2018-07-13T21:12:10.990Z,10.33
2018-07-13T21:14:39.135Z,10.97
2018-07-13T21:17:07.275Z,10.97
2018-07-13T21:19:35.422Z,10.97
2018-07-13T21:22:03.505Z,10.77
2018-07-13T21:24:31.652Z,10.90
2018-07-13T21:26:59.793Z,10.30
2018-07-13T21:29:27.864Z,9.27
2018-07-13T21:31:55.968Z,9.03
2018-07-13T21:34:24.167Z,8.50
2018-07-13T21:36:52.445Z,9.03
2018-07-13T21:39:20.647Z,9.07
2018-07-13T21:41:48.771Z,7.90
2018-07-13T21:44:16.901Z,8.97
2018-07-13T21:46:44.993Z,7.67
2018-07-13T21:49:13.202Z,7.97
2018-07-13T21:51:41.311Z,7.90
2018-07-13T21:54:09.412Z,7.93
2018-07-13T21:56:37.540Z,7.43
2018-07-13T21:59:05.656Z,8.03
2018-07-13T22:01:33.848Z,8.33
2018-07-13T22:04:01.912Z,8.30
2018-07-13T22:06:30.146Z,7.40
2018-07-13T22:08:58.421Z,8.33
2018-07-13T22:11:26.545Z,7.97
2018-07-13T22:13:54.637Z,7.47
2018-07-13T22:16:22.761Z,7.47
2018-07-13T22:18:50.885Z,7.50
2018-07-13T22:21:19.009Z,9.17
2018-07-13T22:23:47.231Z,9.00
2018-07-13T22:26:15.385Z,10.20
2018-07-13T22:28:43.484Z,10.23
2018-07-13T22:31:11.624Z,10.20
2018-07-13T22:33:39.720Z,9.27
2018-07-13T22:36:07.836Z,10.53
2018-07-13T22:38:35.948Z,9.07
2018-07-13T22:41:04.054Z,8.90
2018-07-13T22:43:32.143Z,10.63
2018-07-13T22:46:00.325Z,8.70
2018-07-13T22:48:28.426Z,8.13
2018-07-13T22:50:56.568Z,9.80
2018-07-13T22:53:24.686Z,8.43
2018-07-13T22:55:52.791Z,9.03
2018-07-13T22:58:20.911Z,10.00
2018-07-13T23:00:49.014Z,9.50
2018-07-13T23:03:17.150Z,9.80
2018-07-13T23:05:45.255Z,9.13
2018-07-13T23:08:13.349Z,8.67
2018-07-13T23:10:41.464Z,8.77
2018-07-13T23:13:09.567Z,8.80
2018-07-13T23:15:37.683Z,9.20
2018-07-13T23:18:05.824Z,8.70
2018-07-13T23:20:33.960Z,8.30
2018-07-13T23:23:02.084Z,7.93
2018-07-13T23:25:30.212Z,9.57
2018-07-13T23:27:58.337Z,9.00
2018-07-13T23:30:26.517Z,8.20
2018-07-13T23:32:54.626Z,10.00
2018-07-13T23:35:22.739Z,9.53
2018-07-13T23:37:50.836Z,9.50
2018-07-13T23:40:18.989Z,8.77
2018-07-13T23:42:47.091Z,9.30
2018-07-13T23:45:15.204Z,9.70
2018-07-13T23:47:43.332Z,9.80
2018-07-13T23:50:11.445Z,9.80
2018-07-13T23:52:39.569Z,9.63
2018-07-13T23:55:07.688Z,9.20
2018-07-13T23:57:35.804Z,9.07
